sensor_id;sensor_type;location;lat;lon;timestamp;P1;durP1;ratioP1;P2;durP2;ratioP2
74543;SDS011;63016;55.030;38.710;2023-05-10T00:01:53;9.77;;;5.10;;
74543;SDS011;63016;55.030;38.710;2023-05-10T00:04:19;10.00;;;5.20;;
74543;SDS011;63016;55.030;38.710;2023-05-10T00:06:45;7.43;;;4.75;;
74543;SDS011;63016;55.030;38.710;2023-05-10T00:09:11;7.93;;;5.10;;
74543;SDS011;63016;55.030;38.710;2023-05-10T00:11:36;7.70;;;4.90;;
74543;SDS011;63016;55.030;38.710;2023-05-10T00:14:02;8.23;;;5.00;;
74543;SDS011;63016;55.030;38.710;2023-05-10T00:16:27;9.35;;;4.93;;
74543;SDS011;63016;55.030;38.710;2023-05-10T00:18:53;9.15;;;5.07;;
74543;SDS011;63016;55.030;38.710;2023-05-10T00:21:18;8.35;;;4.80;;
74543;SDS011;63016;55.030;38.710;2023-05-10T00:23:44;7.57;;;4.55;;
74543;SDS011;63016;55.030;38.710;2023-05-10T00:26:10;10.13;;;4.03;;
74543;SDS011;63016;55.030;38.710;2023-05-10T00:28:35;8.13;;;4.90;;
74543;SDS011;63016;55.030;38.710;2023-05-10T00:31:01;9.43;;;4.53;;
74543;SDS011;63016;55.030;38.710;2023-05-10T00:33:26;8.80;;;4.60;;
74543;SDS011;63016;55.030;38.710;2023-05-10T00:35:52;7.43;;;4.70;;
74543;SDS011;63016;55.030;38.710;2023-05-10T00:38:17;8.75;;;4.43;;
74543;SDS011;63016;55.030;38.710;2023-05-10T00:40:43;7.32;;;4.32;;
74543;SDS011;63016;55.030;38.710;2023-05-10T00:43:09;7.93;;;4.32;;
74543;SDS011;63016;55.030;38.710;2023-05-10T00:45:34;8.43;;;4.38;;
74543;SDS011;63016;55.030;38.710;2023-05-10T00:48:01;7.40;;;4.60;;
74543;SDS011;63016;55.030;38.710;2023-05-10T00:50:27;6.93;;;4.22;;
74543;SDS011;63016;55.030;38.710;2023-05-10T00:52:53;7.43;;;4.55;;
74543;SDS011;63016;55.030;38.710;2023-05-10T00:55:20;6.75;;;4.53;;
74543;SDS011;63016;55.030;38.710;2023-05-10T00:57:46;9.20;;;4.43;;
74543;SDS011;63016;55.030;38.710;2023-05-10T01:00:12;8.80;;;4.72;;
74543;SDS011;63016;55.030;38.710;2023-05-10T01:02:42;9.88;;;4.55;;
74543;SDS011;63016;55.030;38.710;2023-05-10T01:05:09;8.30;;;4.65;;
74543;SDS011;63016;55.030;38.710;2023-05-10T01:07:34;6.50;;;4.40;;
74543;SDS011;63016;55.030;38.710;2023-05-10T01:10:00;9.68;;;4.97;;
74543;SDS011;63016;55.030;38.710;2023-05-10T01:12:25;7.00;;;4.15;;
74543;SDS011;63016;55.030;38.710;2023-05-10T01:14:51;10.43;;;4.25;;
74543;SDS011;63016;55.030;38.710;2023-05-10T01:17:17;6.78;;;4.18;;
74543;SDS011;63016;55.030;38.710;2023-05-10T01:19:43;6.85;;;4.32;;
74543;SDS011;63016;55.030;38.710;2023-05-10T01:33:41;6.40;;;4.10;;
74543;SDS011;63016;55.030;38.710;2023-05-10T01:36:18;6.95;;;3.90;;
74543;SDS011;63016;55.030;38.710;2023-05-10T01:41:44;7.53;;;4.28;;
74543;SDS011;63016;55.030;38.710;2023-05-10T01:44:34;7.88;;;4.20;;
74543;SDS011;63016;55.030;38.710;2023-05-10T01:49:47;8.43;;;4.72;;
74543;SDS011;63016;55.030;38.710;2023-05-10T01:52:16;8.05;;;4.60;;
74543;SDS011;63016;55.030;38.710;2023-05-10T01:54:53;8.27;;;3.72;;
74543;SDS011;63016;55.030;38.710;2023-05-10T01:57:21;7.80;;;4.28;;
74543;SDS011;63016;55.030;38.710;2023-05-10T01:59:50;7.85;;;4.10;;
74543;SDS011;63016;55.030;38.710;2023-05-10T02:02:18;7.07;;;3.95;;
74543;SDS011;63016;55.030;38.710;2023-05-10T02:04:45;6.97;;;4.95;;
74543;SDS011;63016;55.030;38.710;2023-05-10T02:07:12;7.95;;;4.72;;
74543;SDS011;63016;55.030;38.710;2023-05-10T02:09:39;7.50;;;4.25;;
74543;SDS011;63016;55.030;38.710;2023-05-10T02:12:07;8.10;;;4.60;;
74543;SDS011;63016;55.030;38.710;2023-05-10T02:14:35;6.38;;;4.15;;
74543;SDS011;63016;55.030;38.710;2023-05-10T02:17:02;6.57;;;4.18;;
74543;SDS011;63016;55.030;38.710;2023-05-10T02:19:30;7.57;;;3.90;;
74543;SDS011;63016;55.030;38.710;2023-05-10T02:21:58;6.50;;;4.30;;
74543;SDS011;63016;55.030;38.710;2023-05-10T02:24:25;6.10;;;3.95;;
74543;SDS011;63016;55.030;38.710;2023-05-10T02:26:53;7.43;;;4.50;;
74543;SDS011;63016;55.030;38.710;2023-05-10T02:29:23;7.15;;;4.25;;
74543;SDS011;63016;55.030;38.710;2023-05-10T02:31:54;6.28;;;4.07;;
74543;SDS011;63016;55.030;38.710;2023-05-10T02:34:25;6.13;;;4.05;;
74543;SDS011;63016;55.030;38.710;2023-05-10T02:36:53;6.28;;;4.18;;
74543;SDS011;63016;55.030;38.710;2023-05-10T02:39:20;6.40;;;4.10;;
74543;SDS011;63016;55.030;38.710;2023-05-10T02:41:46;8.63;;;4.53;;
74543;SDS011;63016;55.030;38.710;2023-05-10T02:44:14;8.07;;;4.53;;
74543;SDS011;63016;55.030;38.710;2023-05-10T02:46:42;6.20;;;4.13;;
74543;SDS011;63016;55.030;38.710;2023-05-10T02:49:08;8.05;;;4.18;;
74543;SDS011;63016;55.030;38.710;2023-05-10T02:51:34;8.40;;;4.25;;
74543;SDS011;63016;55.030;38.710;2023-05-10T02:54:05;8.95;;;4.22;;
74543;SDS011;63016;55.030;38.710;2023-05-10T02:56:35;5.72;;;3.67;;
74543;SDS011;63016;55.030;38.710;2023-05-10T02:59:05;6.85;;;4.18;;
74543;SDS011;63016;55.030;38.710;2023-05-10T03:01:31;6.10;;;3.85;;
74543;SDS011;63016;55.030;38.710;2023-05-10T03:03:57;5.20;;;3.35;;
74543;SDS011;63016;55.030;38.710;2023-05-10T03:06:22;7.70;;;4.20;;
74543;SDS011;63016;55.030;38.710;2023-05-10T03:08:48;6.75;;;4.13;;
74543;SDS011;63016;55.030;38.710;2023-05-10T03:11:16;6.60;;;4.35;;
74543;SDS011;63016;55.030;38.710;2023-05-10T03:17:04;6.68;;;4.00;;
74543;SDS011;63016;55.030;38.710;2023-05-10T03:19:54;6.93;;;3.90;;
74543;SDS011;63016;55.030;38.710;2023-05-10T03:22:27;8.02;;;3.90;;
74543;SDS011;63016;55.030;38.710;2023-05-10T03:25:03;7.90;;;3.65;;
74543;SDS011;63016;55.030;38.710;2023-05-10T03:27:31;8.45;;;4.28;;
74543;SDS011;63016;55.030;38.710;2023-05-10T03:29:57;7.15;;;3.50;;
74543;SDS011;63016;55.030;38.710;2023-05-10T03:32:23;6.13;;;3.90;;
74543;SDS011;63016;55.030;38.710;2023-05-10T03:34:49;6.88;;;3.60;;
74543;SDS011;63016;55.030;38.710;2023-05-10T03:37:15;5.05;;;3.72;;
74543;SDS011;63016;55.030;38.710;2023-05-10T03:39:40;6.45;;;3.63;;
74543;SDS011;63016;55.030;38.710;2023-05-10T03:42:06;6.43;;;3.75;;
74543;SDS011;63016;55.030;38.710;2023-05-10T03:44:31;6.13;;;3.70;;
74543;SDS011;63016;55.030;38.710;2023-05-10T03:46:58;8.10;;;3.47;;
74543;SDS011;63016;55.030;38.710;2023-05-10T03:49:24;7.35;;;3.25;;
74543;SDS011;63016;55.030;38.710;2023-05-10T03:51:49;6.47;;;3.97;;
74543;SDS011;63016;55.030;38.710;2023-05-10T03:54:15;5.88;;;4.03;;
74543;SDS011;63016;55.030;38.710;2023-05-10T03:56:40;7.78;;;4.00;;
74543;SDS011;63016;55.030;38.710;2023-05-10T03:59:06;6.38;;;3.90;;
74543;SDS011;63016;55.030;38.710;2023-05-10T04:01:33;6.32;;;3.60;;
74543;SDS011;63016;55.030;38.710;2023-05-10T04:03:59;9.68;;;4.20;;
74543;SDS011;63016;55.030;38.710;2023-05-10T04:06:25;5.95;;;3.42;;
74543;SDS011;63016;55.030;38.710;2023-05-10T04:08:50;5.63;;;4.03;;
74543;SDS011;63016;55.030;38.710;2023-05-10T04:11:16;7.00;;;3.72;;
74543;SDS011;63016;55.030;38.710;2023-05-10T04:13:41;8.13;;;4.00;;
74543;SDS011;63016;55.030;38.710;2023-05-10T04:16:08;6.95;;;3.83;;
74543;SDS011;63016;55.030;38.710;2023-05-10T04:18:34;6.88;;;4.22;;
74543;SDS011;63016;55.030;38.710;2023-05-10T04:20:59;6.15;;;4.13;;
74543;SDS011;63016;55.030;38.710;2023-05-10T04:23:26;8.82;;;4.18;;
74543;SDS011;63016;55.030;38.710;2023-05-10T04:25:52;6.85;;;4.00;;
74543;SDS011;63016;55.030;38.710;2023-05-10T04:28:17;6.47;;;3.70;;
74543;SDS011;63016;55.030;38.710;2023-05-10T04:30:43;6.78;;;4.13;;
74543;SDS011;63016;55.030;38.710;2023-05-10T04:33:09;9.65;;;4.30;;
74543;SDS011;63016;55.030;38.710;2023-05-10T04:35:34;6.40;;;4.25;;
74543;SDS011;63016;55.030;38.710;2023-05-10T04:38:00;7.00;;;4.38;;
74543;SDS011;63016;55.030;38.710;2023-05-10T04:40:26;7.00;;;3.70;;
74543;SDS011;63016;55.030;38.710;2023-05-10T04:42:51;7.40;;;4.00;;
74543;SDS011;63016;55.030;38.710;2023-05-10T04:45:17;8.23;;;4.07;;
74543;SDS011;63016;55.030;38.710;2023-05-10T04:47:42;5.72;;;4.05;;
74543;SDS011;63016;55.030;38.710;2023-05-10T04:50:08;6.60;;;3.95;;
74543;SDS011;63016;55.030;38.710;2023-05-10T04:52:34;8.20;;;3.90;;
74543;SDS011;63016;55.030;38.710;2023-05-10T04:54:59;6.53;;;3.58;;
74543;SDS011;63016;55.030;38.710;2023-05-10T04:57:25;6.68;;;3.53;;
74543;SDS011;63016;55.030;38.710;2023-05-10T04:59:50;5.90;;;3.90;;
74543;SDS011;63016;55.030;38.710;2023-05-10T05:02:16;5.50;;;4.07;;
74543;SDS011;63016;55.030;38.710;2023-05-10T05:04:41;5.22;;;3.50;;
74543;SDS011;63016;55.030;38.710;2023-05-10T05:07:07;5.55;;;3.60;;
74543;SDS011;63016;55.030;38.710;2023-05-10T05:09:32;4.85;;;3.42;;
74543;SDS011;63016;55.030;38.710;2023-05-10T05:11:58;6.00;;;3.85;;
74543;SDS011;63016;55.030;38.710;2023-05-10T05:14:24;4.75;;;3.35;;
74543;SDS011;63016;55.030;38.710;2023-05-10T05:16:52;4.75;;;3.55;;
74543;SDS011;63016;55.030;38.710;2023-05-10T05:19:18;6.18;;;3.60;;
74543;SDS011;63016;55.030;38.710;2023-05-10T05:21:44;6.57;;;2.83;;
74543;SDS011;63016;55.030;38.710;2023-05-10T05:24:10;5.38;;;3.05;;
74543;SDS011;63016;55.030;38.710;2023-05-10T05:26:37;4.13;;;2.83;;
74543;SDS011;63016;55.030;38.710;2023-05-10T05:29:03;6.90;;;3.40;;
74543;SDS011;63016;55.030;38.710;2023-05-10T05:31:29;6.13;;;2.92;;
74543;SDS011;63016;55.030;38.710;2023-05-10T05:33:54;6.35;;;3.35;;
74543;SDS011;63016;55.030;38.710;2023-05-10T05:36:20;4.00;;;2.70;;
74543;SDS011;63016;55.030;38.710;2023-05-10T05:38:46;5.40;;;3.05;;
74543;SDS011;63016;55.030;38.710;2023-05-10T05:41:11;4.25;;;2.95;;
74543;SDS011;63016;55.030;38.710;2023-05-10T05:43:37;8.27;;;3.47;;
74543;SDS011;63016;55.030;38.710;2023-05-10T05:46:02;7.55;;;3.75;;
74543;SDS011;63016;55.030;38.710;2023-05-10T05:48:29;6.82;;;4.10;;
74543;SDS011;63016;55.030;38.710;2023-05-10T05:50:56;7.53;;;4.60;;
74543;SDS011;63016;55.030;38.710;2023-05-10T05:53:22;7.45;;;4.32;;
74543;SDS011;63016;55.030;38.710;2023-05-10T05:55:51;7.47;;;4.57;;
74543;SDS011;63016;55.030;38.710;2023-05-10T05:58:24;6.78;;;4.22;;
74543;SDS011;63016;55.030;38.710;2023-05-10T06:00:51;9.18;;;4.15;;
74543;SDS011;63016;55.030;38.710;2023-05-10T06:03:17;8.23;;;4.53;;
74543;SDS011;63016;55.030;38.710;2023-05-10T06:05:43;6.65;;;3.70;;
74543;SDS011;63016;55.030;38.710;2023-05-10T06:08:08;6.50;;;3.38;;
74543;SDS011;63016;55.030;38.710;2023-05-10T06:10:34;8.32;;;3.70;;
74543;SDS011;63016;55.030;38.710;2023-05-10T06:13:00;5.93;;;3.10;;
74543;SDS011;63016;55.030;38.710;2023-05-10T06:15:26;9.25;;;3.45;;
74543;SDS011;63016;55.030;38.710;2023-05-10T06:17:52;5.50;;;3.45;;
74543;SDS011;63016;55.030;38.710;2023-05-10T06:20:17;6.47;;;3.15;;
74543;SDS011;63016;55.030;38.710;2023-05-10T06:22:43;7.78;;;3.90;;
74543;SDS011;63016;55.030;38.710;2023-05-10T06:25:09;6.13;;;3.80;;
74543;SDS011;63016;55.030;38.710;2023-05-10T06:27:35;4.18;;;3.10;;
74543;SDS011;63016;55.030;38.710;2023-05-10T06:30:00;5.05;;;3.05;;
74543;SDS011;63016;55.030;38.710;2023-05-10T06:32:26;5.95;;;3.00;;
74543;SDS011;63016;55.030;38.710;2023-05-10T06:34:51;8.88;;;3.35;;
74543;SDS011;63016;55.030;38.710;2023-05-10T06:37:17;7.55;;;3.28;;
74543;SDS011;63016;55.030;38.710;2023-05-10T06:39:42;5.00;;;3.10;;
74543;SDS011;63016;55.030;38.710;2023-05-10T06:42:08;5.60;;;3.10;;
74543;SDS011;63016;55.030;38.710;2023-05-10T06:44:33;7.13;;;3.17;;
74543;SDS011;63016;55.030;38.710;2023-05-10T06:46:59;5.75;;;2.60;;
74543;SDS011;63016;55.030;38.710;2023-05-10T06:49:24;4.80;;;2.67;;
74543;SDS011;63016;55.030;38.710;2023-05-10T06:51:50;4.20;;;2.70;;
74543;SDS011;63016;55.030;38.710;2023-05-10T06:54:15;3.88;;;2.17;;
74543;SDS011;63016;55.030;38.710;2023-05-10T06:56:41;3.63;;;2.13;;
74543;SDS011;63016;55.030;38.710;2023-05-10T06:59:07;4.28;;;2.30;;
74543;SDS011;63016;55.030;38.710;2023-05-10T07:01:32;4.60;;;2.33;;
74543;SDS011;63016;55.030;38.710;2023-05-10T07:03:58;2.92;;;2.40;;
74543;SDS011;63016;55.030;38.710;2023-05-10T07:06:23;3.75;;;1.88;;
74543;SDS011;63016;55.030;38.710;2023-05-10T07:08:49;2.65;;;1.90;;
74543;SDS011;63016;55.030;38.710;2023-05-10T07:11:14;3.70;;;1.70;;
74543;SDS011;63016;55.030;38.710;2023-05-10T07:13:40;3.47;;;1.60;;
74543;SDS011;63016;55.030;38.710;2023-05-10T07:16:09;3.55;;;1.80;;
74543;SDS011;63016;55.030;38.710;2023-05-10T07:18:35;2.72;;;1.50;;
74543;SDS011;63016;55.030;38.710;2023-05-10T07:21:00;3.15;;;1.55;;
74543;SDS011;63016;55.030;38.710;2023-05-10T07:23:26;5.05;;;1.65;;
74543;SDS011;63016;55.030;38.710;2023-05-10T07:25:52;4.80;;;2.13;;
74543;SDS011;63016;55.030;38.710;2023-05-10T07:28:18;2.92;;;1.95;;
74543;SDS011;63016;55.030;38.710;2023-05-10T07:30:44;2.83;;;1.75;;
74543;SDS011;63016;55.030;38.710;2023-05-10T07:33:11;3.83;;;1.35;;
74543;SDS011;63016;55.030;38.710;2023-05-10T07:35:38;1.35;;;1.10;;
74543;SDS011;63016;55.030;38.710;2023-05-10T07:38:04;2.08;;;1.08;;
74543;SDS011;63016;55.030;38.710;2023-05-10T07:40:29;1.50;;;1.02;;
74543;SDS011;63016;55.030;38.710;2023-05-10T07:42:55;3.95;;;1.52;;
74543;SDS011;63016;55.030;38.710;2023-05-10T07:45:21;1.38;;;1.20;;
74543;SDS011;63016;55.030;38.710;2023-05-10T07:47:47;3.28;;;1.30;;
74543;SDS011;63016;55.030;38.710;2023-05-10T07:50:12;2.85;;;1.38;;
74543;SDS011;63016;55.030;38.710;2023-05-10T07:52:38;5.68;;;1.60;;
74543;SDS011;63016;55.030;38.710;2023-05-10T07:55:04;3.15;;;1.70;;
74543;SDS011;63016;55.030;38.710;2023-05-10T07:57:30;1.75;;;1.52;;
74543;SDS011;63016;55.030;38.710;2023-05-10T07:59:56;2.83;;;1.83;;
74543;SDS011;63016;55.030;38.710;2023-05-10T08:02:21;2.70;;;1.30;;
74543;SDS011;63016;55.030;38.710;2023-05-10T08:04:46;4.60;;;1.20;;
74543;SDS011;63016;55.030;38.710;2023-05-10T08:07:12;1.85;;;1.00;;
74543;SDS011;63016;55.030;38.710;2023-05-10T08:09:37;1.73;;;1.08;;
74543;SDS011;63016;55.030;38.710;2023-05-10T08:12:03;3.80;;;1.13;;
74543;SDS011;63016;55.030;38.710;2023-05-10T08:14:29;2.63;;;1.10;;
74543;SDS011;63016;55.030;38.710;2023-05-10T08:16:55;2.75;;;1.27;;
74543;SDS011;63016;55.030;38.710;2023-05-10T08:19:21;1.60;;;0.98;;
74543;SDS011;63016;55.030;38.710;2023-05-10T08:21:47;2.75;;;1.00;;
74543;SDS011;63016;55.030;38.710;2023-05-10T08:24:13;1.80;;;1.08;;
74543;SDS011;63016;55.030;38.710;2023-05-10T08:26:39;2.42;;;1.10;;
74543;SDS011;63016;55.030;38.710;2023-05-10T08:29:04;1.40;;;1.00;;
74543;SDS011;63016;55.030;38.710;2023-05-10T08:31:30;1.95;;;0.90;;
74543;SDS011;63016;55.030;38.710;2023-05-10T08:33:55;1.38;;;0.80;;
74543;SDS011;63016;55.030;38.710;2023-05-10T08:36:21;3.40;;;1.00;;
74543;SDS011;63016;55.030;38.710;2023-05-10T08:38:52;2.58;;;1.08;;
74543;SDS011;63016;55.030;38.710;2023-05-10T08:41:19;3.42;;;1.15;;
74543;SDS011;63016;55.030;38.710;2023-05-10T08:43:46;1.98;;;1.20;;
74543;SDS011;63016;55.030;38.710;2023-05-10T08:46:13;1.80;;;1.20;;
74543;SDS011;63016;55.030;38.710;2023-05-10T08:48:44;1.80;;;1.20;;
74543;SDS011;63016;55.030;38.710;2023-05-10T08:51:14;1.10;;;1.00;;
74543;SDS011;63016;55.030;38.710;2023-05-10T08:53:44;1.88;;;1.20;;
74543;SDS011;63016;55.030;38.710;2023-05-10T08:56:10;4.15;;;1.67;;
74543;SDS011;63016;55.030;38.710;2023-05-10T08:58:37;3.45;;;1.23;;
74543;SDS011;63016;55.030;38.710;2023-05-10T09:01:03;3.35;;;1.70;;
74543;SDS011;63016;55.030;38.710;2023-05-10T09:03:30;2.25;;;1.30;;
74543;SDS011;63016;55.030;38.710;2023-05-10T09:05:56;4.18;;;1.45;;
74543;SDS011;63016;55.030;38.710;2023-05-10T09:08:25;3.42;;;1.38;;
74543;SDS011;63016;55.030;38.710;2023-05-10T09:10:53;3.28;;;1.63;;
74543;SDS011;63016;55.030;38.710;2023-05-10T09:13:21;5.38;;;1.35;;
74543;SDS011;63016;55.030;38.710;2023-05-10T09:15:47;4.45;;;1.50;;
74543;SDS011;63016;55.030;38.710;2023-05-10T09:18:13;2.85;;;1.25;;
74543;SDS011;63016;55.030;38.710;2023-05-10T09:20:39;3.58;;;1.55;;
74543;SDS011;63016;55.030;38.710;2023-05-10T09:23:05;3.60;;;1.42;;
74543;SDS011;63016;55.030;38.710;2023-05-10T09:25:31;4.38;;;1.65;;
74543;SDS011;63016;55.030;38.710;2023-05-10T09:27:58;1.75;;;1.50;;
74543;SDS011;63016;55.030;38.710;2023-05-10T09:30:25;2.58;;;1.50;;
74543;SDS011;63016;55.030;38.710;2023-05-10T09:32:52;3.03;;;1.48;;
74543;SDS011;63016;55.030;38.710;2023-05-10T09:35:20;3.83;;;1.52;;
74543;SDS011;63016;55.030;38.710;2023-05-10T09:37:47;2.10;;;1.60;;
74543;SDS011;63016;55.030;38.710;2023-05-10T09:40:18;2.15;;;1.50;;
74543;SDS011;63016;55.030;38.710;2023-05-10T09:42:53;5.03;;;1.80;;
74543;SDS011;63016;55.030;38.710;2023-05-10T09:45:26;5.85;;;2.28;;
74543;SDS011;63016;55.030;38.710;2023-05-10T09:47:56;4.68;;;1.98;;
74543;SDS011;63016;55.030;38.710;2023-05-10T09:50:22;4.45;;;2.40;;
74543;SDS011;63016;55.030;38.710;2023-05-10T09:52:49;3.22;;;1.63;;
74543;SDS011;63016;55.030;38.710;2023-05-10T09:55:19;3.22;;;1.75;;
74543;SDS011;63016;55.030;38.710;2023-05-10T09:57:47;2.72;;;1.75;;
74543;SDS011;63016;55.030;38.710;2023-05-10T10:00:17;3.70;;;2.00;;
74543;SDS011;63016;55.030;38.710;2023-05-10T10:02:45;2.60;;;1.50;;
74543;SDS011;63016;55.030;38.710;2023-05-10T10:05:19;3.60;;;2.00;;
74543;SDS011;63016;55.030;38.710;2023-05-10T10:07:45;4.90;;;2.30;;
74543;SDS011;63016;55.030;38.710;2023-05-10T10:10:11;6.40;;;2.35;;
74543;SDS011;63016;55.030;38.710;2023-05-10T10:12:38;4.70;;;2.20;;
74543;SDS011;63016;55.030;38.710;2023-05-10T10:15:07;3.17;;;2.13;;
74543;SDS011;63016;55.030;38.710;2023-05-10T10:17:33;5.43;;;2.03;;
74543;SDS011;63016;55.030;38.710;2023-05-10T10:20:02;5.20;;;2.30;;
74543;SDS011;63016;55.030;38.710;2023-05-10T10:22:28;4.10;;;2.17;;
74543;SDS011;63016;55.030;38.710;2023-05-10T10:24:53;4.05;;;2.20;;
74543;SDS011;63016;55.030;38.710;2023-05-10T10:35:31;2.33;;;1.80;;
74543;SDS011;63016;55.030;38.710;2023-05-10T10:37:58;4.63;;;2.30;;
74543;SDS011;63016;55.030;38.710;2023-05-10T10:40:25;2.63;;;1.67;;
74543;SDS011;63016;55.030;38.710;2023-05-10T10:42:52;3.50;;;1.98;;
74543;SDS011;63016;55.030;38.710;2023-05-10T10:45:18;3.10;;;1.80;;
74543;SDS011;63016;55.030;38.710;2023-05-10T10:47:45;5.40;;;2.30;;
74543;SDS011;63016;55.030;38.710;2023-05-10T10:50:11;3.63;;;1.80;;
74543;SDS011;63016;55.030;38.710;2023-05-10T10:52:41;4.80;;;1.98;;
74543;SDS011;63016;55.030;38.710;2023-05-10T10:57:54;2.97;;;1.65;;
74543;SDS011;63016;55.030;38.710;2023-05-10T11:00:31;4.70;;;2.38;;
74543;SDS011;63016;55.030;38.710;2023-05-10T11:07:56;3.70;;;1.90;;
74543;SDS011;63016;55.030;38.710;2023-05-10T11:10:23;3.70;;;1.90;;
74543;SDS011;63016;55.030;38.710;2023-05-10T11:12:53;2.65;;;1.70;;
74543;SDS011;63016;55.030;38.710;2023-05-10T11:15:32;1.95;;;1.50;;
74543;SDS011;63016;55.030;38.710;2023-05-10T11:20:52;6.55;;;1.60;;
74543;SDS011;63016;55.030;38.710;2023-05-10T11:23:23;2.60;;;1.40;;
74543;SDS011;63016;55.030;38.710;2023-05-10T11:25:54;3.72;;;1.42;;
74543;SDS011;63016;55.030;38.710;2023-05-10T11:28:20;2.10;;;1.30;;
74543;SDS011;63016;55.030;38.710;2023-05-10T11:30:45;1.90;;;1.20;;
74543;SDS011;63016;55.030;38.710;2023-05-10T11:33:17;6.28;;;1.30;;
74543;SDS011;63016;55.030;38.710;2023-05-10T11:35:44;3.47;;;1.40;;
74543;SDS011;63016;55.030;38.710;2023-05-10T11:38:11;1.70;;;1.25;;
74543;SDS011;63016;55.030;38.710;2023-05-10T11:40:38;2.03;;;1.30;;
74543;SDS011;63016;55.030;38.710;2023-05-10T11:43:06;3.92;;;1.23;;
74543;SDS011;63016;55.030;38.710;2023-05-10T11:45:35;1.77;;;1.30;;
74543;SDS011;63016;55.030;38.710;2023-05-10T11:48:01;3.00;;;1.30;;
74543;SDS011;63016;55.030;38.710;2023-05-10T11:50:27;1.70;;;1.17;;
74543;SDS011;63016;55.030;38.710;2023-05-10T11:52:56;1.50;;;1.10;;
74543;SDS011;63016;55.030;38.710;2023-05-10T11:55:23;2.40;;;1.30;;
74543;SDS011;63016;55.030;38.710;2023-05-10T11:57:55;2.10;;;1.13;;
74543;SDS011;63016;55.030;38.710;2023-05-10T12:00:26;1.55;;;1.20;;
74543;SDS011;63016;55.030;38.710;2023-05-10T12:02:51;1.38;;;1.13;;
74543;SDS011;63016;55.030;38.710;2023-05-10T12:05:17;2.45;;;1.13;;
74543;SDS011;63016;55.030;38.710;2023-05-10T12:07:43;2.75;;;1.20;;
74543;SDS011;63016;55.030;38.710;2023-05-10T12:10:12;1.88;;;1.27;;
74543;SDS011;63016;55.030;38.710;2023-05-10T12:12:44;3.22;;;1.35;;
74543;SDS011;63016;55.030;38.710;2023-05-10T12:15:19;2.88;;;1.27;;
74543;SDS011;63016;55.030;38.710;2023-05-10T12:17:49;2.63;;;1.38;;
74543;SDS011;63016;55.030;38.710;2023-05-10T12:20:27;4.38;;;1.73;;
74543;SDS011;63016;55.030;38.710;2023-05-10T12:22:53;5.03;;;1.40;;
74543;SDS011;63016;55.030;38.710;2023-05-10T12:25:22;4.68;;;1.20;;
74543;SDS011;63016;55.030;38.710;2023-05-10T12:27:50;12.13;;;1.77;;
74543;SDS011;63016;55.030;38.710;2023-05-10T12:30:23;10.02;;;1.63;;
74543;SDS011;63016;55.030;38.710;2023-05-10T12:32:50;6.53;;;1.73;;
74543;SDS011;63016;55.030;38.710;2023-05-10T12:35:18;9.00;;;1.25;;
74543;SDS011;63016;55.030;38.710;2023-05-10T12:37:47;10.60;;;1.30;;
74543;SDS011;63016;55.030;38.710;2023-05-10T12:40:13;7.88;;;1.50;;
74543;SDS011;63016;55.030;38.710;2023-05-10T12:42:39;4.97;;;1.25;;
74543;SDS011;63016;55.030;38.710;2023-05-10T12:45:05;3.15;;;1.27;;
74543;SDS011;63016;55.030;38.710;2023-05-10T12:47:32;2.92;;;1.13;;
74543;SDS011;63016;55.030;38.710;2023-05-10T12:49:59;2.92;;;1.15;;
74543;SDS011;63016;55.030;38.710;2023-05-10T12:52:25;2.50;;;1.38;;
74543;SDS011;63016;55.030;38.710;2023-05-10T12:54:52;1.63;;;1.30;;
74543;SDS011;63016;55.030;38.710;2023-05-10T12:57:18;2.30;;;1.52;;
74543;SDS011;63016;55.030;38.710;2023-05-10T12:59:44;1.55;;;1.20;;
74543;SDS011;63016;55.030;38.710;2023-05-10T13:02:10;2.20;;;1.33;;
74543;SDS011;63016;55.030;38.710;2023-05-10T13:04:35;5.30;;;1.45;;
74543;SDS011;63016;55.030;38.710;2023-05-10T13:07:04;2.55;;;1.20;;
74543;SDS011;63016;55.030;38.710;2023-05-10T13:09:36;4.45;;;1.48;;
74543;SDS011;63016;55.030;38.710;2023-05-10T13:12:02;11.50;;;1.67;;
74543;SDS011;63016;55.030;38.710;2023-05-10T13:14:28;3.47;;;1.40;;
74543;SDS011;63016;55.030;38.710;2023-05-10T13:16:54;7.22;;;1.50;;
74543;SDS011;63016;55.030;38.710;2023-05-10T13:19:20;4.38;;;1.50;;
74543;SDS011;63016;55.030;38.710;2023-05-10T13:21:45;4.50;;;1.33;;
74543;SDS011;63016;55.030;38.710;2023-05-10T13:24:11;4.60;;;1.50;;
74543;SDS011;63016;55.030;38.710;2023-05-10T13:26:39;1.65;;;1.33;;
74543;SDS011;63016;55.030;38.710;2023-05-10T13:29:05;4.38;;;1.38;;
74543;SDS011;63016;55.030;38.710;2023-05-10T13:31:31;2.05;;;1.30;;
74543;SDS011;63016;55.030;38.710;2023-05-10T13:33:57;4.13;;;1.10;;
74543;SDS011;63016;55.030;38.710;2023-05-10T13:36:22;3.15;;;1.23;;
74543;SDS011;63016;55.030;38.710;2023-05-10T13:38:48;5.22;;;1.27;;
74543;SDS011;63016;55.030;38.710;2023-05-10T13:41:14;2.97;;;1.40;;
74543;SDS011;63016;55.030;38.710;2023-05-10T13:43:39;3.28;;;1.40;;
74543;SDS011;63016;55.030;38.710;2023-05-10T13:46:05;1.35;;;1.00;;
74543;SDS011;63016;55.030;38.710;2023-05-10T13:48:30;2.60;;;1.15;;
74543;SDS011;63016;55.030;38.710;2023-05-10T13:50:56;2.03;;;1.33;;
74543;SDS011;63016;55.030;38.710;2023-05-10T13:53:22;2.05;;;1.25;;
74543;SDS011;63016;55.030;38.710;2023-05-10T13:55:47;2.20;;;1.25;;
74543;SDS011;63016;55.030;38.710;2023-05-10T13:58:13;4.20;;;1.38;;
74543;SDS011;63016;55.030;38.710;2023-05-10T14:00:39;1.80;;;1.20;;
74543;SDS011;63016;55.030;38.710;2023-05-10T14:03:04;9.52;;;1.70;;
74543;SDS011;63016;55.030;38.710;2023-05-10T14:05:31;5.68;;;1.35;;
74543;SDS011;63016;55.030;38.710;2023-05-10T14:07:56;2.40;;;1.30;;
74543;SDS011;63016;55.030;38.710;2023-05-10T14:10:22;4.07;;;1.42;;
74543;SDS011;63016;55.030;38.710;2023-05-10T14:12:49;4.72;;;1.23;;
74543;SDS011;63016;55.030;38.710;2023-05-10T14:15:15;4.38;;;1.35;;
74543;SDS011;63016;55.030;38.710;2023-05-10T14:17:41;22.08;;;1.65;;
74543;SDS011;63016;55.030;38.710;2023-05-10T14:20:07;8.32;;;1.50;;
74543;SDS011;63016;55.030;38.710;2023-05-10T14:22:33;8.15;;;1.30;;
74543;SDS011;63016;55.030;38.710;2023-05-10T14:24:59;7.35;;;1.73;;
74543;SDS011;63016;55.030;38.710;2023-05-10T14:27:25;4.70;;;1.30;;
74543;SDS011;63016;55.030;38.710;2023-05-10T14:29:50;3.58;;;1.55;;
74543;SDS011;63016;55.030;38.710;2023-05-10T14:32:16;5.63;;;1.35;;
74543;SDS011;63016;55.030;38.710;2023-05-10T14:34:42;6.72;;;1.45;;
74543;SDS011;63016;55.030;38.710;2023-05-10T14:37:09;2.75;;;1.17;;
74543;SDS011;63016;55.030;38.710;2023-05-10T14:39:36;6.68;;;1.50;;
74543;SDS011;63016;55.030;38.710;2023-05-10T14:42:01;2.95;;;1.30;;
74543;SDS011;63016;55.030;38.710;2023-05-10T14:44:27;2.33;;;1.30;;
74543;SDS011;63016;55.030;38.710;2023-05-10T14:46:53;10.02;;;1.38;;
74543;SDS011;63016;55.030;38.710;2023-05-10T14:49:18;4.03;;;1.60;;
74543;SDS011;63016;55.030;38.710;2023-05-10T14:51:44;9.10;;;2.10;;
74543;SDS011;63016;55.030;38.710;2023-05-10T14:54:10;3.28;;;1.35;;
74543;SDS011;63016;55.030;38.710;2023-05-10T14:56:36;4.25;;;1.58;;
74543;SDS011;63016;55.030;38.710;2023-05-10T14:59:02;5.95;;;1.67;;
74543;SDS011;63016;55.030;38.710;2023-05-10T15:01:28;5.72;;;1.40;;
74543;SDS011;63016;55.030;38.710;2023-05-10T15:03:57;3.53;;;1.83;;
74543;SDS011;63016;55.030;38.710;2023-05-10T15:06:23;4.00;;;1.63;;
74543;SDS011;63016;55.030;38.710;2023-05-10T15:08:55;6.57;;;2.00;;
74543;SDS011;63016;55.030;38.710;2023-05-10T15:11:20;3.20;;;1.65;;